Home > Products > Valid Products > TAF

000
FTUS42 KKEY 281700
TAFEYW
TAF
KEYW 281737Z 2818/2918 02012G20KT P6SM SKC
     FM282200 03011G18KT P6SM SKC
     FM290900 02010G15KT P6SM SCT030=



000
FTUS42 KKEY 281700
TAFMTH
TAF
KMTH 281737Z 2818/2918 01011G18KT P6SM SKC
     FM282100 01010KT P6SM SKC
     FM290800 01009KT P6SM SCT030=



000
FTUS42 KKEY 281500 AAA
TAFEYW
TAF AMD
KEYW 281501Z 2815/2912 03013G22KT P6SM SKC
     FM281900 03011G18KT P6SM SKC
     FM290900 02011KT P6SM SCT030=



000
FTUS42 KKEY 281100
TAFEYW
TAF
KEYW 281132Z 2812/2912 01015G23KT P6SM SKC
     FM281700 02012KT P6SM SKC
     FM282300 03014G22KT P6SM SKC=



000
FTUS42 KKEY 281100
TAFEYW
TAF
KEYW 281132Z 2812/2912 01015G23KT P6SM SKC
     FM281700 02012KT P6SM SKC
     FM282300 03014G22KT P6SM SKC=



000
FTUS42 KKEY 281100
TAFMTH
TAF
KMTH 281132Z 2812/2912 02014G23KT P6SM SKC
     FM281700 02010KT P6SM SKC
     FM282300 03014G22KT P6SM SKC=



000
FTUS42 KKEY 280900 AAA
TAFEYW
TAF AMD
KEYW 280900Z 2809/2906 01014G23KT P6SM SKC
     FM281700 02012G18KT P6SM SKC
     FM282300 03014G22KT P6SM SKC=



000
FTUS42 KKEY 280900 AAA
TAFMTH
TAF AMD
KMTH 280900Z 2809/2906 02014G20KT P6SM SKC
     FM281700 02010KT P6SM SKC
     FM282300 03014G22KT P6SM SKC=



000
FTUS42 KKEY 280900 AAA
TAFEYW
TAF AMD
KEYW 280900Z 2809/2906 01014G23KT P6SM SKC
     FM281700 02012G18KT P6SM SKC
     FM282300 03014G22KT P6SM SKC=



000
FTUS42 KKEY 280500
TAFEYW
TAF
KEYW 280532Z 2806/2906 01013G21KT P6SM SKC=



000
FTUS42 KKEY 280500
TAFEYW
TAF
KEYW 280532Z 2806/2906 01013G21KT P6SM SKC=



000
FTUS42 KKEY 280500
TAFMTH
TAF
KMTH 280532Z 2806/2906 02012G18KT P6SM SKC=



000
FTUS42 KKEY 280300 AAA
TAFMTH
TAF AMD
KMTH 280351Z 2804/2824 02012G18KT P6SM SKC=



000
FTUS42 KKEY 280300 AAA
TAFMTH
TAF AMD
KMTH 280351Z 2804/2824 02012G18KT P6SM SKC=



000
FTUS42 KKEY 280300 AAA
TAFEYW
TAF AMD
KEYW 280350Z 2804/2824 02014G21KT P6SM SKC=



000
FTUS42 KKEY 280300 AAA
TAFEYW
TAF AMD
KEYW 280350Z 2804/2824 02014G21KT P6SM SKC=



000
FTUS42 KKEY 280300 AAA
TAFEYW
TAF AMD
KEYW 280350Z 2804/2824 02014G21KT P6SM SKC=



000
FTUS42 KKEY 280300 AAA
TAFEYW
TAF AMD
KEYW 280350Z 2804/2824 02014G21KT P6SM SKC=



000
FTUS42 KKEY 272300
TAFEYW
TAF
KEYW 272333Z 2800/2824 36013KT P6SM SKC
     FM280300 03014G21KT P6SM SCT027=



000
FTUS42 KKEY 272300
TAFEYW
TAF
KEYW 272333Z 2800/2824 36013KT P6SM SKC
     FM280300 03014G21KT P6SM SCT027=



000
FTUS42 KKEY 272300
TAFMTH
TAF
KMTH 272333Z 2800/2824 01009KT P6SM SKC
     FM280300 03012G18KT P6SM FEW027=



000
FTUS42 KKEY 272100 AAA
TAFMTH
TAF AMD
KMTH 272117Z 2721/2818 01011KT P6SM SKC
     FM280000 03012G18KT P6SM SKC=



000
FTUS42 KKEY 271700
TAFMTH
TAF
KMTH 271736Z 2718/2818 01012G20KT P6SM SKC
     FM280000 03015G22KT P6SM SKC=



000
FTUS42 KKEY 271700
TAFEYW
TAF
KEYW 271736Z 2718/2818 01015G24KT P6SM SKC=



000
FTUS42 KKEY 271500 AAA
TAFEYW
TAF AMD
KEYW 271508Z 2715/2812 02015G23KT P6SM SKC
     FM272000 02016KT P6SM SKC=



000
FTUS42 KKEY 271500 AAA
TAFEYW
TAF AMD
KEYW 271508Z 2715/2812 02015G23KT P6SM SKC
     FM272000 02016KT P6SM SKC=



000
FTUS42 KKEY 271100
TAFEYW
TAF
KEYW 271135Z 2712/2812 01014G20KT P6SM SKC
     FM272000 02016KT P6SM SKC=



000
FTUS42 KKEY 271100
TAFEYW
TAF
KEYW 271135Z 2712/2812 01014G20KT P6SM SKC
     FM272000 02016KT P6SM SKC=



000
FTUS42 KKEY 271100
TAFMTH
TAF
KMTH 271135Z 2712/2812 01013G20KT P6SM SKC
     FM272000 02016KT P6SM SKC=



000
FTUS42 KKEY 270900 AAA
TAFEYW
TAF AMD
KEYW 270900Z 2709/2806 01013G20KT P6SM SKC
     FM271000 01015G22KT P6SM SKC
     FM272000 02016KT P6SM SKC=



000
FTUS42 KKEY 270900 AAA
TAFEYW
TAF AMD
KEYW 270900Z 2709/2806 01013G20KT P6SM SKC
     FM271000 01015G22KT P6SM SKC
     FM272000 02016KT P6SM SKC=



000
FTUS42 KKEY 270900 AAA
TAFMTH
TAF AMD
KMTH 270900Z 2709/2806 36014G20KT P6SM FEW100
     FM271000 01013G20KT P6SM SKC
     FM272000 02016KT P6SM SKC=



000
FTUS42 KKEY 270500
TAFMTH
TAF
KMTH 270539Z 2706/2806 36013G20KT P6SM SCT080
     FM271000 01013G20KT P6SM SKC
     FM272000 02016KT P6SM SKC=



000
FTUS42 KKEY 270500
TAFEYW
TAF
KEYW 270539Z 2706/2806 01012G20KT P6SM SCT080
     FM271000 01015G22KT P6SM SKC
     FM272000 02016KT P6SM SKC=



000
FTUS42 KKEY 270500
TAFEYW
TAF
KEYW 270539Z 2706/2806 01012G20KT P6SM SCT080
     FM271000 01015G22KT P6SM SKC
     FM272000 02016KT P6SM SKC=



000
FTUS42 KKEY 270300 RRA
TAFEYW
TAF
KEYW 270353Z 2704/2724 36015G26KT P6SM SCT080
     FM271000 01015G22KT P6SM SKC
     FM271900 03016KT P6SM SKC=



000
FTUS42 KKEY 270300 RRA
TAFEYW
TAF
KEYW 270353Z 2704/2724 36015G26KT P6SM SCT080
     FM271000 01015G22KT P6SM SKC
     FM271900 03016KT P6SM SKC=



000
FTUS42 KKEY 270300 RRA
TAFMTH
TAF
KMTH 270353Z 2704/2724 36016G23KT P6SM SCT080
     FM271000 01015G22KT P6SM SKC
     FM271900 03016KT P6SM SKC=



000
FTUS42 KKEY 270300 RRA
TAFEYW
TAF
KEYW 270353Z 2704/2724 36015G26KT P6SM SCT080
     FM271000 01015G22KT P6SM SKC
     FM271900 03016KT P6SM SKC=



000
FTUS42 KKEY 270300 RRA
TAFMTH
TAF
KMTH 270353Z 2704/2724 36016G23KT P6SM SCT080
     FM271000 01015G22KT P6SM SKC
     FM271900 03016KT P6SM SKC=



000
FTUS42 KKEY 270300 RRA
TAFEYW
TAF
KEYW 270353Z 2704/2724 36015G26KT P6SM SCT080
     FM271000 01015G22KT P6SM SKC
     FM271900 03016KT P6SM SKC=



000
FTUS42 KKEY 262200 AAB
TAFMTH
TAF AMD
KMTH 262241Z 2623/2718 36016G23KT P6SM SCT019 SCT080
     FM271000 01015G22KT P6SM FEW080
     FM271700 03016KT P6SM SKC=



000
FTUS42 KKEY 262200 AAB
TAFEYW
TAF AMD
KEYW 262237Z 2623/2718 36015G26KT P6SM FEW024 SCT030 BKN080
     FM271000 01015G22KT P6SM FEW080
     FM271700 03016KT P6SM SKC=



000
FTUS42 KKEY 262200 AAB
TAFEYW
TAF AMD
KEYW 262237Z 2623/2718 36015G26KT P6SM FEW024 SCT030 BKN080
     FM271000 01015G22KT P6SM FEW080
     FM271700 03016KT P6SM SKC=



000
FTUS42 KKEY 262000 AAA
TAFEYW
TAF AMD
KEYW 262003Z 2620/2718 35019G25KT P6SM OVC020
     FM270000 01015G22KT P6SM SCT030 SCT050=



000
FTUS42 KKEY 262000 AAA
TAFEYW
TAF AMD
KEYW 262003Z 2620/2718 35019G25KT P6SM OVC020
     FM270000 01015G22KT P6SM SCT030 SCT050=



000
FTUS42 KKEY 262000 AAA
TAFMTH
TAF AMD
KMTH 262003Z 2620/2718 33015G24KT P6SM OVC017
     FM270000 01014G20KT P6SM SCT030 SCT050=



000
FTUS42 KKEY 261700
TAFMTH
TAF
KMTH 261740Z 2618/2718 34015G26KT P6SM BKN018
      TEMPO 2618/2620 P6SM SCT018
     FM262000 34014G20KT P6SM SCT030 SCT050
     FM270000 01014G20KT P6SM SCT030 SCT050=



000
FTUS42 KKEY 261700
TAFEYW
TAF
KEYW 261740Z 2618/2718 34017G25KT P6SM BKN018
      TEMPO 2618/2620 P6SM SCT018
     FM262000 01017G22KT P6SM SCT030 SCT050=



000
FTUS42 KKEY 261700
TAFEYW
TAF
KEYW 261740Z 2618/2718 34017G25KT P6SM BKN018
      TEMPO 2618/2620 P6SM SCT018
     FM262000 01017G22KT P6SM SCT030 SCT050=



000
FTUS42 KKEY 261600 AAD
TAFEYW
TAF AMD
KEYW 261608Z 2616/2712 34015G26KT P6SM BKN015
     FM261800 35015G22KT P6SM SCT015 BKN040
     FM262200 01017G22KT P6SM SCT050=



000
FTUS42 KKEY 261600 AAD
TAFEYW
TAF AMD
KEYW 261608Z 2616/2712 34015G26KT P6SM BKN015
     FM261800 35015G22KT P6SM SCT015 BKN040
     FM262200 01017G22KT P6SM SCT050=



000
FTUS42 KKEY 261500 AAC
TAFEYW
TAF AMD
KEYW 261501Z 2615/2712 34017G25KT P6SM OVC008
     FM261800 35015G22KT P6SM SCT015 BKN040
     FM262200 01017G22KT P6SM SCT050=



000
FTUS42 KKEY 261500 AAC
TAFEYW
TAF AMD
KEYW 261501Z 2615/2712 34017G25KT P6SM OVC008
     FM261800 35015G22KT P6SM SCT015 BKN040
     FM262200 01017G22KT P6SM SCT050=



000
FTUS42 KKEY 261400 AAB
TAFMTH
TAF AMD
KMTH 261434Z 2615/2712 34013G21KT P6SM VCSH BKN010 BKN040
     FM261900 34012G20KT P6SM SCT015 BKN030
     FM270000 01014G20KT P6SM SCT050=



000
FTUS42 KKEY 261400 AAB
TAFEYW
TAF AMD
KEYW 261417Z 2614/2712 35018G26KT P6SM VCSH BKN010
     FM261900 35015G22KT P6SM SCT015 BKN040
     FM262200 01017G22KT P6SM SCT050=



000
FTUS42 KKEY 261400 AAB
TAFEYW
TAF AMD
KEYW 261417Z 2614/2712 35018G26KT P6SM VCSH BKN010
     FM261900 35015G22KT P6SM SCT015 BKN040
     FM262200 01017G22KT P6SM SCT050=



000
FTUS42 KKEY 261400 AAA
TAFMTH
TAF AMD
KMTH 261413Z 2614/2712 29010G18KT P6SM VCSH SCT010 BKN040
     FM261530 34012G20KT P6SM BKN010
     FM261900 34012G20KT P6SM SCT015 BKN030
     FM270000 01014G20KT P6SM SCT050=



000
FTUS42 KKEY 261300 AAA
TAFEYW
TAF AMD
KEYW 261309Z 2613/2712 26025G32KT P6SM VCSH BKN013 BKN040
     FM262200 01017G22KT P6SM SCT050=



000
FTUS42 KKEY 261300 AAA
TAFEYW
TAF AMD
KEYW 261309Z 2613/2712 26025G32KT P6SM VCSH BKN013 BKN040
     FM262200 01017G22KT P6SM SCT050=



000
FTUS42 KKEY 261100 RRA
TAFEYW
TAF
KEYW 261141Z 2612/2712 24010KT P6SM VCSH SCT040 BKN070
     FM261300 34014G22KT P6SM VCSH SCT015 BKN050
      TEMPO 2613/2615 34020G28KT BKN012
     FM270000 01014G20KT P6SM SCT050=



000
FTUS42 KKEY 261100 RRA
TAFEYW
TAF
KEYW 261141Z 2612/2712 24010KT P6SM VCSH SCT040 BKN070
     FM261300 34014G22KT P6SM VCSH SCT015 BKN050
      TEMPO 2613/2615 34020G28KT BKN012
     FM270000 01014G20KT P6SM SCT050=



000
FTUS42 KKEY 261100 RRA
TAFMTH
TAF
KMTH 261141Z 2612/2712 21009KT P6SM VCSH SCT040
     FM261700 34012G20KT P6SM VCSH SCT015 BKN050
      TEMPO 2617/2619 BKN012
     FM270000 01014G20KT P6SM SCT050=



000
FTUS42 KKEY 260900 AAA
TAFEYW
TAF AMD
KEYW 260900Z 2609/2706 21009KT P6SM VCSH SCT040 SCT070
     FM261100 34015G22KT P6SM VCSH SCT015 BKN050
      TEMPO 2612/2614 BKN015
     FM270000 01014G20KT P6SM SCT050=



000
FTUS42 KKEY 260900 AAA
TAFEYW
TAF AMD
KEYW 260900Z 2609/2706 21009KT P6SM VCSH SCT040 SCT070
     FM261100 34015G22KT P6SM VCSH SCT015 BKN050
      TEMPO 2612/2614 BKN015
     FM270000 01014G20KT P6SM SCT050=



000
FTUS42 KKEY 260900 AAA
TAFMTH
TAF AMD
KMTH 260900Z 2609/2706 21009KT P6SM VCSH SCT040 SCT070
     FM261300 34012G20KT P6SM VCSH SCT015 BKN050
      TEMPO 2614/2616 BKN015
     FM270000 01014G20KT P6SM SCT050=



000
FTUS42 KKEY 260500
TAFEYW
TAF
KEYW 260528Z 2606/2706 17010KT P6SM FEW020
     FM260800 21009KT P6SM VCSH SCT040
     FM261200 34013G22KT P6SM VCSH SCT015 BKN050
      TEMPO 2613/2615 BKN015=



000
FTUS42 KKEY 260500
TAFMTH
TAF
KMTH 260528Z 2606/2706 16008KT P6SM FEW020
     FM260900 21009KT P6SM VCSH SCT040
     FM261400 34012G20KT P6SM VCSH SCT015 BKN050
      TEMPO 2614/2616 BKN015=



000
FTUS42 KKEY 260500
TAFEYW
TAF
KEYW 260528Z 2606/2706 17010KT P6SM FEW020
     FM260800 21009KT P6SM VCSH SCT040
     FM261200 34013G22KT P6SM VCSH SCT015 BKN050
      TEMPO 2613/2615 BKN015=



000
FTUS42 KKEY 252300
TAFMTH
TAF
KMTH 252329Z 2600/2624 16008KT P6SM SCT040
     FM260900 21009KT P6SM SCT040
     FM261400 34012G20KT P6SM VCSH SCT015 BKN050
      TEMPO 2614/2616 BKN015=



000
FTUS42 KKEY 252300
TAFEYW
TAF
KEYW 252329Z 2600/2624 16010KT P6SM SCT040
     FM260800 21009KT P6SM SCT040
     FM261300 34013G22KT P6SM VCSH SCT015 BKN050
      TEMPO 2613/2615 BKN015=



000
FTUS42 KKEY 252300
TAFEYW
TAF
KEYW 252329Z 2600/2624 16010KT P6SM SCT040
     FM260800 21009KT P6SM SCT040
     FM261300 34013G22KT P6SM VCSH SCT015 BKN050
      TEMPO 2613/2615 BKN015=



    US Dept of Commerce
    National Oceanic and Atmospheric Administration
    National Weather Service
    1325 East West Highway
    Silver Spring, MD 20910
    Page Author: NWS Internet Services Team
Disclaimer
Information Quality
Credits
Glossary
Privacy Policy
Freedom of Information Act (FOIA)
About Us
Career Opportunities